ADDS METAR Data INFO
IDs: Format: Raw Decoded Include TAF

Data at: 1359 UTC 17 Dec 2017

KCCA 171355Z AUTO 21003KT 10SM OVC009 07/06 A3012 RMK AO2
KCCA 171335Z AUTO 00000KT 7SM OVC008 06/06 A3011 RMK AO2
KCCA 171315Z AUTO 00000KT 10SM OVC010 06/06 A3010 RMK AO2
KCCA 171255Z AUTO 00000KT 7SM FEW008 BKN011 OVC020 06/06 A3009 RMK AO2
KCCA 171235Z AUTO 00000KT 6SM BR OVC007 06/06 A3009 RMK AO2
KCCA 171215Z AUTO 00000KT 7SM OVC006 06/06 A3007 RMK AO2
KCCA 171155Z AUTO VRB03KT 10SM OVC006 06/06 A3006 RMK AO2
KCCA 171135Z AUTO 00000KT 10SM OVC006 06/06 A3004 RMK AO2
KCCA 171115Z AUTO 08005KT 6SM BR FEW006 BKN010 OVC075 06/06 A3003 RMK AO2
KCCA 171055Z AUTO 00000KT 7SM BKN010 BKN060 OVC070 06/06 A3006 RMK AO2
KCCA 171035Z AUTO 12004KT 4SM BR BKN008 OVC011 06/06 A3006 RMK AO2
KCCA 171015Z AUTO 00000KT 4SM BR OVC009 06/06 A3007 RMK AO2
KCCA 170955Z AUTO 00000KT 3/4SM -RA OVC009 06/06 A3009 RMK AO2
KCCA 170935Z AUTO 00000KT 2SM RA OVC009 06/06 A3012 RMK AO2
KCCA 170915Z AUTO 00000KT 1SM RA OVC010 06/06 A3012 RMK AO2
KCCA 170855Z AUTO 00000KT 1SM RA OVC009 06/06 A3012 RMK AO2
KCCA 170835Z AUTO 00000KT 1 1/4SM RA OVC008 06/06 A3012 RMK AO2
KCCA 170815Z AUTO 00000KT 1/2SM -RA OVC010 06/06 A3011 RMK AO2
KCCA 170755Z AUTO 00000KT 1/2SM -RA OVC010 06/06 A3012 RMK AO2
KCCA 170735Z AUTO 00000KT 3SM RA FEW011 BKN032 OVC047 06/06 A3013 RMK AO2
KCCA 170715Z AUTO 00000KT 3SM -RA FEW034 OVC046 06/05 A3013 RMK AO2
KCCA 170655Z AUTO 17003KT 5SM -RA BKN046 OVC060 06/05 A3014 RMK AO2
KCCA 170635Z AUTO 14005KT 3SM -RA BKN048 OVC060 06/05 A3014 RMK AO2
KCCA 170615Z AUTO VRB04KT 6SM -DZ BKN048 OVC070 07/04 A3015 RMK AO2
KCCA 170555Z AUTO 17005KT 5SM -RA FEW039 SCT049 OVC075 07/03 A3014 RMK AO2
KCCA 170535Z AUTO 00000KT 9SM -DZ FEW034 SCT040 BKN065 07/03 A3012 RMK AO2
KCCA 170515Z AUTO 00000KT 9SM OVC075 06/04 A3011 RMK AO2
KCCA 170455Z AUTO 00000KT 10SM BKN075 OVC085 06/03 A3009 RMK AO2
KCCA 170435Z AUTO 00000KT 10SM BKN075 OVC080 06/03 A3008 RMK AO2
KCCA 170415Z AUTO 03003KT 10SM FEW060 OVC075 07/02 A3009 RMK AO2
KCCA 170355Z AUTO 00000KT 10SM SCT060 OVC075 07/01 A3010 RMK AO2
KCCA 170335Z AUTO 00000KT 10SM FEW060 BKN075 BKN120 08/00 A3013 RMK AO2
KCCA 170315Z AUTO 00000KT 10SM CLR 07/00 A3013 RMK AO2
KCCA 170255Z AUTO 00000KT 10SM CLR 06/01 A3014 RMK AO2
KCCA 170215Z AUTO 00000KT 10SM CLR 06/01 A3014 RMK AO2
KCCA 170155Z AUTO 00000KT 10SM CLR 06/00 A3013 RMK AO2
KCCA 170135Z AUTO 00000KT 10SM FEW120 06/01 A3012 RMK AO2
KCCA 170115Z AUTO 00000KT 10SM CLR 06/00 A3011 RMK AO2
KCCA 170055Z AUTO 00000KT 10SM CLR 07/M00 A3011 RMK AO2
KCCA 170035Z AUTO 00000KT 10SM CLR 08/M01 A3011 RMK AO2
KCCA 170015Z AUTO 00000KT 10SM CLR 09/M01 A3010 RMK AO2
KCCA 162355Z AUTO 15003KT 10SM CLR 10/M01 A3011 RMK AO2
KCCA 162335Z AUTO 14004KT 10SM CLR 10/M01 A3011 RMK AO2
KCCA 162315Z AUTO 14005KT 10SM CLR 10/M01 A3010 RMK AO2
KCCA 162255Z AUTO 15006KT 10SM CLR 11/M01 A3009 RMK AO2
KCCA 162235Z AUTO 14006KT 10SM CLR 12/M01 A3009 RMK AO2
KCCA 162215Z AUTO 16005KT 10SM CLR 12/M02 A3009 RMK AO2
KCCA 162155Z AUTO VRB04KT 9SM CLR 13/M02 A3008 RMK AO2
KCCA 162135Z AUTO VRB06KT 10SM CLR 13/M02 A3008 RMK AO2
KCCA 162115Z AUTO 17005G11KT 10SM CLR 14/M02 A3008 RMK AO2
KCCA 162055Z AUTO VRB06KT 150V210 10SM CLR 13/M02 A3008 RMK AO2
KCCA 162035Z AUTO 20009KT 9SM CLR 14/M02 A3008 RMK AO2
KCCA 162015Z AUTO 19009G15KT 10SM CLR 14/M02 A3010 RMK AO2
KCCA 161955Z AUTO 20007G12KT 10SM CLR 13/M02 A3009 RMK AO2
KCCA 161935Z AUTO 19006KT 10SM CLR 13/M02 A3009 RMK AO2
KCCA 161915Z AUTO 23007G13KT 10SM CLR 12/M02 A3011 RMK AO2
KCCA 161855Z AUTO 21011KT 10SM CLR 12/M02 A3012 RMK AO2
KCCA 161835Z AUTO 23009KT 10SM CLR 12/M02 A3013 RMK AO2
KCCA 161815Z AUTO 22007KT 9SM CLR 11/M02 A3014 RMK AO2
KCCA 161755Z AUTO 23008KT 9SM CLR 10/M02 A3015 RMK AO2
KCCA 161735Z AUTO VRB04KT 10SM CLR 09/M01 A3016 RMK AO2
KCCA 161715Z AUTO 00000KT 10SM CLR 07/M00 A3017 RMK AO2
KCCA 161655Z AUTO 00000KT 10SM CLR 06/00 A3018 RMK AO2
KCCA 161635Z AUTO 00000KT 9SM CLR 04/00 A3019 RMK AO2
KCCA 161615Z AUTO 00000KT 9SM CLR 02/M00 A3020 RMK AO2
KCCA 161555Z AUTO 00000KT 9SM CLR 00/M02 A3020 RMK AO2
KCCA 161535Z AUTO 00000KT 9SM CLR M01/M03 A3020 RMK AO2
KCCA 161515Z AUTO 00000KT 9SM CLR M03/M04 A3020 RMK AO2
KCCA 161455Z AUTO 00000KT 9SM CLR M04/M05 A3019 RMK AO2
KCCA 161435Z AUTO 00000KT 8SM CLR M04/M05 A3019 RMK AO2
KCCA 161415Z AUTO 00000KT 9SM CLR M05/M06 A3019 RMK AO2
KCCA 161355Z AUTO 00000KT 9SM CLR M06/M06 A3018 RMK AO2
KCCA 161335Z AUTO 00000KT 9SM CLR M06/M07 A3018 RMK AO2
KCCA 161315Z AUTO 00000KT 10SM CLR M06/M07 A3019 RMK AO2
KCCA 161255Z AUTO 00000KT 10SM FEW026 M06/M07 A3019 RMK AO2
KCCA 161235Z AUTO 00000KT 10SM CLR M06/M07 A3018 RMK AO2
KCCA 161215Z AUTO 00000KT 10SM CLR M06/M07 A3017 RMK AO2
KCCA 161155Z AUTO 00000KT 10SM CLR M06/M07 A3016 RMK AO2
KCCA 161135Z AUTO 00000KT 10SM CLR M06/M06 A3016 RMK AO2
KCCA 161115Z AUTO 00000KT 10SM CLR M06/M06 A3015 RMK AO2
KCCA 161055Z AUTO 00000KT 9SM CLR M06/M06 A3014 RMK AO2
KCCA 161035Z AUTO 00000KT 10SM CLR M06/M06 A3014 RMK AO2
KCCA 161015Z AUTO 00000KT 10SM CLR M06/M06 A3015 RMK AO2
KCCA 160955Z AUTO 00000KT 10SM CLR M05/M06 A3016 RMK AO2
KCCA 160935Z AUTO 00000KT 10SM CLR M05/M06 A3016 RMK AO2
KCCA 160915Z AUTO 00000KT 9SM CLR M05/M05 A3016 RMK AO2
KCCA 160855Z AUTO 00000KT 10SM CLR M05/M05 A3017 RMK AO2
KCCA 160835Z AUTO 00000KT 10SM CLR M05/M05 A3017 RMK AO2
KCCA 160815Z AUTO 00000KT 9SM CLR M05/M05 A3017 RMK AO2
KCCA 160755Z AUTO 00000KT 9SM SCT033 M04/M05 A3017 RMK AO2
KCCA 160735Z AUTO 00000KT 9SM BKN033 M04/M05 A3017 RMK AO2
KCCA 160715Z AUTO 00000KT 9SM CLR M04/M05 A3017 RMK AO2
KCCA 160655Z AUTO 00000KT 9SM CLR M04/M04 A3017 RMK AO2
KCCA 160615Z AUTO 00000KT 10SM CLR M04/M04 A3017 RMK AO2
KCCA 160555Z AUTO 00000KT 9SM CLR M03/M04 A3017 RMK AO2
KCCA 160535Z AUTO 00000KT 10SM CLR M03/M04 A3018 RMK AO2
KCCA 160515Z AUTO 00000KT 10SM CLR M03/M03 A3017 RMK AO2
KCCA 160455Z AUTO 00000KT 10SM CLR M03/M04 A3017 RMK AO2
KCCA 160435Z AUTO 00000KT 10SM CLR M02/M03 A3017 RMK AO2
KCCA 160415Z AUTO 00000KT 10SM CLR M02/M03 A3016 RMK AO2
KCCA 160355Z AUTO 00000KT 10SM CLR M02/M03 A3015 RMK AO2
KCCA 160335Z AUTO 00000KT 10SM CLR M02/M03 A3016 RMK AO2
KCCA 160315Z AUTO 00000KT 10SM CLR M01/M02 A3016 RMK AO2
KCCA 160255Z AUTO 00000KT 10SM CLR M01/M02 A3016 RMK AO2
KCCA 160235Z AUTO 00000KT 10SM CLR M01/M02 A3017 RMK AO2
KCCA 160215Z AUTO 00000KT 10SM CLR M00/M02 A3017 RMK AO2